Time;durP1;ratioP1;P1;durP2;ratioP2;P2;SDS_P1;SDS_P2;PMS_P1;PMS_P2;Temp;Humidity;BMP_temperature;BMP_pressure;BME280_temperature;BME280_humidity;BME280_pressure;Samples;Min_cycle;Max_cycle;Signal;HPM_P1;HPM_P2
2022/03/25 00:01:26;;;;;;;14.30;11.13;;;7.00;51.40;;;;;;911119;153;27396;-77
2022/03/25 00:03:53;;;;;;;14.93;11.47;;;7.00;51.60;;;;;;909100;155;27411;-77
2022/03/25 00:06:21;;;;;;;13.13;10.83;;;7.00;51.60;;;;;;907676;155;27400;-77
2022/03/25 00:08:46;;;;;;;16.60;10.80;;;6.90;51.80;;;;;;910348;155;27472;-77
2022/03/25 00:11:13;;;;;;;15.23;10.97;;;6.90;51.90;;;;;;910447;155;27443;-77
2022/03/25 00:13:39;;;;;;;11.37;9.07;;;6.90;52.00;;;;;;909641;155;27317;-77
2022/03/25 00:16:06;;;;;;;12.43;10.30;;;6.80;52.00;;;;;;908947;155;29061;-77
2022/03/25 00:18:33;;;;;;;15.97;11.07;;;6.80;52.10;;;;;;908275;155;27402;-77
2022/03/25 00:20:59;;;;;;;16.27;12.03;;;6.80;52.30;;;;;;909914;155;27486;-77
2022/03/25 00:23:26;;;;;;;15.87;11.50;;;6.70;52.90;;;;;;910705;155;27385;-77
2022/03/25 00:25:52;;;;;;;14.83;10.77;;;6.70;52.60;;;;;;908636;155;27351;-77
2022/03/25 00:28:20;;;;;;;14.40;9.40;;;6.70;52.60;;;;;;909504;155;27369;-77
2022/03/25 00:30:46;;;;;;;12.40;9.97;;;6.60;52.60;;;;;;910548;155;27391;-77
2022/03/25 00:33:12;;;;;;;12.70;9.93;;;6.60;52.60;;;;;;900108;155;27554;-77
2022/03/25 00:35:40;;;;;;;13.53;9.70;;;6.60;52.70;;;;;;897388;157;27760;-77
2022/03/25 00:38:05;;;;;;;16.13;9.80;;;6.50;52.70;;;;;;896987;158;27381;-77
2022/03/25 00:40:32;;;;;;;14.53;10.03;;;6.50;52.90;;;;;;897377;158;27901;-77
2022/03/25 00:42:58;;;;;;;15.47;10.27;;;6.50;53.00;;;;;;897865;158;27404;-77
2022/03/25 00:45:28;;;;;;;12.37;9.37;;;6.40;52.60;;;;;;897032;158;27342;-77
2022/03/25 00:47:52;;;;;;;12.73;10.80;;;6.40;53.10;;;;;;897886;158;27905;-77
2022/03/25 00:50:20;;;;;;;14.43;11.03;;;6.40;53.30;;;;;;897188;158;27366;-77
2022/03/25 00:52:45;;;;;;;14.73;10.67;;;6.30;53.30;;;;;;897278;157;27416;-77
2022/03/25 00:55:11;;;;;;;13.63;11.57;;;6.30;53.50;;;;;;898328;158;27506;-75
2022/03/25 00:57:38;;;;;;;14.60;11.93;;;6.30;53.60;;;;;;917205;155;27340;-76
2022/03/25 01:00:05;;;;;;;14.97;10.80;;;6.20;53.70;;;;;;905123;154;27311;-76
2022/03/25 01:02:31;;;;;;;14.43;10.70;;;6.20;53.80;;;;;;896656;157;27349;-76
2022/03/25 01:04:58;;;;;;;16.60;12.00;;;6.10;53.70;;;;;;915354;154;27372;-76
2022/03/25 01:07:24;;;;;;;17.40;11.27;;;6.10;53.80;;;;;;917572;154;27479;-76
2022/03/25 01:09:51;;;;;;;12.33;10.20;;;6.10;54.50;;;;;;897603;158;28428;-76
2022/03/25 01:12:19;;;;;;;12.40;9.63;;;6.00;53.50;;;;;;892528;157;27390;-76
2022/03/25 01:14:44;;;;;;;13.63;10.50;;;6.00;54.20;;;;;;902124;157;27867;-75
2022/03/25 01:17:11;;;;;;;14.40;11.00;;;6.00;54.20;;;;;;897919;158;27387;-76
2022/03/25 01:19:38;;;;;;;13.97;10.33;;;6.00;54.30;;;;;;893065;157;27492;-76
2022/03/25 01:22:04;;;;;;;14.43;10.53;;;5.90;54.30;;;;;;892353;159;27340;-75
2022/03/25 01:24:30;;;;;;;13.80;10.53;;;5.90;54.30;;;;;;899228;158;27484;-76
2022/03/25 01:26:57;;;;;;;15.17;10.87;;;5.90;54.50;;;;;;917138;154;27351;-75
2022/03/25 01:29:24;;;;;;;14.10;10.23;;;5.90;54.60;;;;;;898197;156;27377;-75
2022/03/25 01:31:50;;;;;;;16.43;11.97;;;5.80;54.70;;;;;;919773;154;27458;-76
2022/03/25 01:34:17;;;;;;;14.63;12.53;;;5.80;54.60;;;;;;902900;154;27502;-76
2022/03/25 01:36:43;;;;;;;14.47;11.80;;;5.80;54.90;;;;;;901732;157;27933;-76
2022/03/25 01:39:10;;;;;;;20.13;12.37;;;5.80;55.10;;;;;;897974;157;27309;-76
2022/03/25 01:41:37;;;;;;;15.10;12.63;;;5.80;55.30;;;;;;905728;155;27467;-75
2022/03/25 01:44:04;;;;;;;14.27;11.23;;;5.80;55.40;;;;;;921627;153;27418;-76
2022/03/25 01:46:30;;;;;;;13.67;10.40;;;5.80;55.60;;;;;;913856;155;27402;-76
2022/03/25 01:48:57;;;;;;;13.93;10.60;;;5.80;55.60;;;;;;914310;155;27325;-76
2022/03/25 01:51:35;;;;;;;16.67;11.77;;;5.80;55.60;;;;;;916876;151;27466;-76
2022/03/25 01:54:04;;;;;;;14.20;10.27;;;5.70;55.70;;;;;;900947;155;27897;-75
2022/03/25 01:56:30;;;;;;;16.20;11.40;;;5.70;55.70;;;;;;920065;154;27840;-75
2022/03/25 01:58:57;;;;;;;14.83;12.10;;;5.70;55.70;;;;;;915733;153;27326;-76
2022/03/25 02:01:25;;;;;;;14.47;12.23;;;5.70;55.80;;;;;;916225;153;28020;-76
2022/03/25 02:03:50;;;;;;;15.83;11.63;;;5.60;55.70;;;;;;915968;154;27412;-76
2022/03/25 02:06:17;;;;;;;12.77;10.83;;;5.60;55.70;;;;;;916301;154;27332;-76
2022/03/25 02:08:43;;;;;;;15.20;11.67;;;5.60;55.70;;;;;;916173;154;27473;-75
2022/03/25 02:11:11;;;;;;;15.53;12.50;;;5.50;55.70;;;;;;915512;154;27341;-76
2022/03/25 02:13:36;;;;;;;16.57;11.73;;;5.50;55.80;;;;;;916646;154;27461;-75
2022/03/25 02:16:03;;;;;;;15.40;10.83;;;5.50;55.80;;;;;;916327;154;27483;-76
2022/03/25 02:18:29;;;;;;;13.20;10.27;;;5.40;55.80;;;;;;916425;154;27422;-76
2022/03/25 02:20:56;;;;;;;13.40;10.17;;;5.40;55.90;;;;;;916285;154;27325;-75
2022/03/25 02:23:23;;;;;;;14.63;10.40;;;5.30;56.10;;;;;;915556;154;27443;-75
2022/03/25 02:25:49;;;;;;;10.83;9.27;;;5.30;56.00;;;;;;916470;154;27270;-75
2022/03/25 02:28:16;;;;;;;16.47;11.67;;;5.30;56.10;;;;;;916708;154;27926;-75
2022/03/25 02:30:43;;;;;;;14.27;10.30;;;5.20;56.20;;;;;;916806;154;27390;-75
2022/03/25 02:33:10;;;;;;;13.57;10.30;;;5.20;56.30;;;;;;914180;154;27389;-75
2022/03/25 02:35:41;;;;;;;13.07;10.47;;;5.20;56.30;;;;;;906644;157;27464;-76
2022/03/25 02:38:08;;;;;;;17.63;11.63;;;5.10;56.30;;;;;;918414;155;27417;-75
2022/03/25 02:40:34;;;;;;;15.90;11.57;;;5.10;56.40;;;;;;909818;155;27461;-75
2022/03/25 02:43:01;;;;;;;18.03;11.17;;;5.10;56.70;;;;;;909504;155;27429;-76
2022/03/25 02:45:27;;;;;;;15.03;11.83;;;5.00;56.60;;;;;;910371;155;27838;-76
2022/03/25 02:47:54;;;;;;;15.67;11.17;;;5.00;56.80;;;;;;910754;155;27340;-76
2022/03/25 02:50:21;;;;;;;22.53;11.30;;;5.00;56.70;;;;;;910590;155;27417;-76
2022/03/25 02:52:47;;;;;;;15.50;11.17;;;4.90;56.80;;;;;;901538;157;27451;-76
2022/03/25 02:55:14;;;;;;;17.33;11.73;;;4.90;56.80;;;;;;917362;155;27289;-76
2022/03/25 02:57:40;;;;;;;15.47;11.03;;;4.90;56.80;;;;;;917609;155;27331;-75
2022/03/25 03:00:10;;;;;;;15.73;11.60;;;4.80;56.90;;;;;;916115;155;27433;-76
2022/03/25 03:02:36;;;;;;;11.93;10.13;;;4.80;57.00;;;;;;915915;155;27499;-76
2022/03/25 03:05:03;;;;;;;13.37;10.63;;;4.70;57.00;;;;;;887407;159;27524;-75
2022/03/25 03:07:30;;;;;;;12.90;10.30;;;4.70;57.10;;;;;;909508;155;27527;-76
2022/03/25 03:09:56;;;;;;;14.10;10.90;;;4.60;57.00;;;;;;905740;157;27385;-75
2022/03/25 03:12:24;;;;;;;15.97;11.43;;;4.60;57.20;;;;;;914313;155;27321;-75
2022/03/25 03:14:49;;;;;;;16.60;11.40;;;4.50;57.20;;;;;;903925;156;27489;-76
2022/03/25 03:17:16;;;;;;;17.83;12.00;;;4.50;57.20;;;;;;895838;158;27506;-76
2022/03/25 03:19:42;;;;;;;14.27;10.83;;;4.40;57.30;;;;;;898908;158;27351;-76
2022/03/25 03:22:09;;;;;;;13.50;11.10;;;4.40;57.50;;;;;;903004;157;27358;-75
2022/03/25 03:24:36;;;;;;;15.63;11.20;;;4.40;57.60;;;;;;901085;157;27443;-75
2022/03/25 03:27:02;;;;;;;12.00;9.10;;;4.30;57.60;;;;;;916677;155;27850;-76
2022/03/25 03:29:29;;;;;;;15.17;10.83;;;4.30;57.80;;;;;;914464;155;27381;-76
2022/03/25 03:31:55;;;;;;;14.90;10.50;;;4.30;57.90;;;;;;898957;158;27431;-76
2022/03/25 03:34:22;;;;;;;12.27;9.73;;;4.20;58.00;;;;;;916034;152;27531;-76
2022/03/25 03:36:48;;;;;;;15.30;10.63;;;4.20;58.10;;;;;;923774;152;27324;-75
2022/03/25 03:39:15;;;;;;;15.33;11.60;;;4.20;58.10;;;;;;898071;157;27408;-75
2022/03/25 03:41:42;;;;;;;17.37;11.90;;;4.20;58.20;;;;;;921406;154;27510;-75
2022/03/25 03:44:08;;;;;;;14.50;11.13;;;4.20;58.30;;;;;;919427;153;27338;-76
2022/03/25 03:46:35;;;;;;;17.17;10.73;;;4.10;58.30;;;;;;914536;155;27346;-76
2022/03/25 03:49:01;;;;;;;16.63;11.67;;;4.10;58.30;;;;;;914539;154;27446;-76
2022/03/25 03:51:28;;;;;;;18.07;11.97;;;4.10;58.50;;;;;;898046;157;27384;-75
2022/03/25 03:53:55;;;;;;;14.13;11.27;;;4.10;58.60;;;;;;906870;155;27959;-76
2022/03/25 03:56:22;;;;;;;16.70;11.73;;;4.10;58.70;;;;;;917982;153;27368;-76
2022/03/25 03:58:48;;;;;;;15.77;11.27;;;4.00;58.70;;;;;;916413;155;27358;-76
2022/03/25 04:01:14;;;;;;;14.27;10.90;;;4.00;58.80;;;;;;916876;155;27344;-75
2022/03/25 04:03:41;;;;;;;15.63;10.13;;;4.00;58.80;;;;;;914832;155;27381;-76
2022/03/25 04:06:09;;;;;;;13.17;9.90;;;4.00;58.90;;;;;;916285;155;27410;-76
2022/03/25 04:08:34;;;;;;;13.53;10.87;;;3.90;59.00;;;;;;918200;155;27357;-76
2022/03/25 04:11:01;;;;;;;14.67;11.30;;;3.90;59.00;;;;;;917814;154;27377;-76
2022/03/25 04:13:27;;;;;;;13.73;10.63;;;3.90;59.10;;;;;;919045;155;27363;-76
2022/03/25 04:15:54;;;;;;;16.07;12.03;;;3.90;59.20;;;;;;920207;154;27430;-75
2022/03/25 04:18:21;;;;;;;12.90;11.33;;;3.90;59.30;;;;;;917729;155;27711;-76
2022/03/25 04:20:48;;;;;;;12.07;10.77;;;3.90;59.30;;;;;;916240;155;27371;-76
2022/03/25 04:23:14;;;;;;;14.37;11.17;;;3.90;59.30;;;;;;916626;155;27335;-76
2022/03/25 04:25:40;;;;;;;13.23;10.70;;;3.80;59.30;;;;;;918891;154;27426;-76
2022/03/25 04:28:07;;;;;;;12.20;9.97;;;3.80;59.40;;;;;;917115;155;27477;-75
2022/03/25 04:30:33;;;;;;;13.03;9.97;;;3.80;59.50;;;;;;916773;155;27422;-76
2022/03/25 04:33:01;;;;;;;11.67;9.80;;;3.80;59.50;;;;;;916639;155;27340;-75
2022/03/25 04:35:28;;;;;;;14.93;11.43;;;3.80;59.50;;;;;;910433;154;27386;-76
2022/03/25 04:37:53;;;;;;;13.80;11.77;;;3.80;59.50;;;;;;903543;157;27370;-76
2022/03/25 04:40:20;;;;;;;13.07;9.73;;;3.70;59.70;;;;;;905216;157;27523;-76
2022/03/25 04:42:46;;;;;;;13.33;10.83;;;3.70;59.70;;;;;;905124;157;27476;-76
2022/03/25 04:45:13;;;;;;;14.43;11.23;;;3.70;59.60;;;;;;904231;157;27503;-77
2022/03/25 04:47:40;;;;;;;14.40;11.27;;;3.70;59.80;;;;;;905643;157;27955;-77
2022/03/25 04:50:06;;;;;;;14.83;10.63;;;3.70;59.90;;;;;;904215;155;27354;-76
2022/03/25 04:52:33;;;;;;;15.30;11.30;;;3.60;59.90;;;;;;904230;155;27410;-76
2022/03/25 04:54:59;;;;;;;13.93;11.03;;;3.60;59.90;;;;;;905546;155;27384;-77
2022/03/25 04:57:26;;;;;;;14.50;10.13;;;3.60;59.90;;;;;;906133;157;27328;-76
2022/03/25 04:59:53;;;;;;;15.17;10.97;;;3.60;60.00;;;;;;905260;157;27467;-77
2022/03/25 05:02:20;;;;;;;15.77;11.37;;;3.60;60.00;;;;;;905142;157;27328;-76
2022/03/25 05:04:46;;;;;;;13.63;10.60;;;3.60;60.20;;;;;;904147;155;27368;-76
2022/03/25 05:07:15;;;;;;;15.07;10.63;;;3.60;60.20;;;;;;906461;155;27461;-76
2022/03/25 05:09:42;;;;;;;16.07;11.40;;;3.50;60.10;;;;;;903703;157;27348;-76
2022/03/25 05:12:08;;;;;;;14.23;10.80;;;3.50;60.20;;;;;;906249;157;27350;-76
2022/03/25 05:14:35;;;;;;;12.03;10.00;;;3.50;60.30;;;;;;905673;156;27355;-76
2022/03/25 05:17:02;;;;;;;15.10;10.80;;;3.50;60.50;;;;;;905157;155;27472;-76
2022/03/25 05:19:28;;;;;;;11.60;10.40;;;3.50;60.50;;;;;;905621;157;27920;-76
2022/03/25 05:21:55;;;;;;;12.70;9.70;;;3.50;60.70;;;;;;904726;156;27378;-76
2022/03/25 05:26:49;;;;;;;15.33;9.67;;;3.50;60.80;;;;;;958826;145;38514;-78
2022/03/25 05:29:16;;;;;;;14.90;10.97;;;3.50;61.00;;;;;;942739;151;27300;-78
2022/03/25 05:31:42;;;;;;;13.17;10.20;;;3.50;61.10;;;;;;941680;149;27261;-78
2022/03/25 05:34:09;;;;;;;12.23;10.37;;;3.50;61.20;;;;;;941453;151;27313;-78
2022/03/25 05:36:36;;;;;;;13.57;10.97;;;3.50;61.30;;;;;;943561;151;27421;-78
2022/03/25 05:39:02;;;;;;;14.07;10.67;;;3.50;61.50;;;;;;942875;149;27304;-78
2022/03/25 05:41:29;;;;;;;11.97;9.73;;;3.60;61.70;;;;;;944157;151;28038;-78
2022/03/25 05:43:55;;;;;;;15.30;10.93;;;3.70;61.90;;;;;;942844;149;27371;-78
2022/03/25 05:46:22;;;;;;;14.60;10.67;;;3.70;62.10;;;;;;942595;149;27280;-78
2022/03/25 05:48:49;;;;;;;13.33;10.67;;;3.90;62.40;;;;;;941974;151;27316;-78
2022/03/25 05:51:15;;;;;;;14.70;11.90;;;4.00;62.60;;;;;;942505;150;27951;-78
2022/03/25 05:53:42;;;;;;;15.57;11.33;;;4.20;62.70;;;;;;942361;151;27334;-78
2022/03/25 05:56:08;;;;;;;15.33;12.40;;;4.40;62.80;;;;;;942516;151;27242;-78
2022/03/25 05:58:35;;;;;;;14.47;12.47;;;4.70;62.90;;;;;;942061;150;27963;-78
2022/03/25 06:01:02;;;;;;;18.37;11.80;;;5.00;63.00;;;;;;942667;151;27366;-78
2022/03/25 06:03:30;;;;;;;17.33;12.47;;;5.30;63.00;;;;;;942054;151;27331;-78
2022/03/25 06:05:55;;;;;;;15.70;12.63;;;5.60;63.00;;;;;;942633;149;27270;-78
2022/03/25 06:08:23;;;;;;;15.80;13.93;;;6.00;62.80;;;;;;942435;151;27309;-78
2022/03/25 06:10:49;;;;;;;14.43;12.03;;;6.30;62.60;;;;;;942490;149;27336;-78
2022/03/25 06:13:14;;;;;;;18.37;13.83;;;6.70;62.40;;;;;;942781;149;27402;-78
2022/03/25 06:15:41;;;;;;;15.63;12.13;;;7.10;62.10;;;;;;942504;151;28281;-78
2022/03/25 06:18:08;;;;;;;20.83;14.23;;;7.50;62.00;;;;;;942672;151;27345;-78
2022/03/25 06:20:34;;;;;;;21.63;13.57;;;7.90;61.90;;;;;;942679;151;27353;-78
2022/03/25 06:23:01;;;;;;;16.23;13.73;;;8.40;61.60;;;;;;941357;149;27348;-78
2022/03/25 06:25:27;;;;;;;16.73;14.33;;;8.80;61.30;;;;;;943056;149;27517;-78
2022/03/25 06:27:54;;;;;;;16.73;14.30;;;9.30;61.50;;;;;;944645;151;27361;-78
2022/03/25 06:30:21;;;;;;;17.10;14.20;;;9.80;60.20;;;;;;944144;149;27359;-78
2022/03/25 06:32:47;;;;;;;17.23;15.07;;;10.30;59.70;;;;;;944097;151;27378;-78
2022/03/25 06:35:14;;;;;;;18.87;15.73;;;10.80;59.30;;;;;;944399;151;27257;-78
2022/03/25 06:37:40;;;;;;;17.47;14.63;;;11.30;58.90;;;;;;944385;150;27332;-78
2022/03/25 06:40:07;;;;;;;17.73;14.77;;;11.80;58.30;;;;;;943208;151;27332;-78
2022/03/25 06:42:34;;;;;;;17.67;15.27;;;12.30;57.80;;;;;;943483;151;27380;-78
2022/03/25 06:45:00;;;;;;;18.77;14.27;;;12.80;57.30;;;;;;942214;149;27389;-78
2022/03/25 06:47:27;;;;;;;17.90;14.43;;;13.30;56.80;;;;;;943692;151;27407;-78
2022/03/25 06:49:53;;;;;;;15.50;13.00;;;13.80;56.30;;;;;;943546;151;27449;-78
2022/03/25 06:52:20;;;;;;;15.87;14.17;;;14.20;55.80;;;;;;943697;151;27436;-78
2022/03/25 06:54:47;;;;;;;16.60;13.63;;;14.80;55.40;;;;;;944224;151;27242;-78
2022/03/25 06:57:13;;;;;;;15.37;13.30;;;15.30;54.80;;;;;;944259;151;27260;-79
2022/03/25 06:59:41;;;;;;;14.28;12.78;;;15.70;54.10;;;;;;944289;150;27416;-78
2022/03/25 07:02:07;;;;;;;15.03;13.28;;;16.20;53.60;;;;;;944107;151;27430;-79
2022/03/25 07:04:33;;;;;;;14.78;12.93;;;16.70;53.10;;;;;;944071;151;27433;-79
2022/03/25 07:07:00;;;;;;;15.68;12.98;;;17.20;52.50;;;;;;943764;151;27335;-79
2022/03/25 07:09:27;;;;;;;13.68;12.35;;;17.60;51.90;;;;;;943665;151;27384;-79
2022/03/25 07:11:53;;;;;;;13.48;12.10;;;18.10;51.50;;;;;;943621;151;27270;-79
2022/03/25 07:14:19;;;;;;;14.20;12.70;;;18.60;51.10;;;;;;943684;151;27335;-79
2022/03/25 07:16:46;;;;;;;13.62;12.20;;;19.10;50.50;;;;;;943544;149;27458;-79
2022/03/25 07:19:13;;;;;;;13.53;12.15;;;19.60;49.80;;;;;;943409;151;28471;-79
2022/03/25 07:21:39;;;;;;;14.20;12.73;;;20.10;49.10;;;;;;943341;150;27230;-79
2022/03/25 07:24:06;;;;;;;14.00;12.60;;;20.50;48.50;;;;;;943713;151;27324;-79
2022/03/25 07:26:32;;;;;;;15.85;14.28;;;21.00;47.90;;;;;;943485;151;27520;-79
2022/03/25 07:28:59;;;;;;;15.83;13.22;;;21.40;47.20;;;;;;943789;149;27344;-80
2022/03/25 07:31:28;;;;;;;14.13;12.82;;;21.80;46.40;;;;;;943986;151;27238;-79
2022/03/25 07:33:52;;;;;;;14.50;13.08;;;22.20;45.90;;;;;;943475;149;27406;-80
2022/03/25 07:36:19;;;;;;;15.95;13.62;;;22.60;45.50;;;;;;943070;149;27351;-79
2022/03/25 07:38:45;;;;;;;15.48;13.93;;;23.00;45.00;;;;;;943300;151;27326;-80
2022/03/25 07:41:12;;;;;;;14.60;13.10;;;23.40;44.40;;;;;;942590;151;27918;-80
2022/03/25 07:43:39;;;;;;;16.87;15.13;;;23.70;43.90;;;;;;943210;149;27324;-80
2022/03/25 07:46:05;;;;;;;16.48;14.35;;;24.10;43.40;;;;;;942553;151;27429;-80
2022/03/25 07:48:32;;;;;;;16.35;14.75;;;24.50;43.00;;;;;;942980;150;27399;-80
2022/03/25 07:50:58;;;;;;;16.77;15.08;;;24.90;42.50;;;;;;943826;151;27382;-80
2022/03/25 07:53:25;;;;;;;16.17;14.58;;;25.30;42.00;;;;;;943736;151;27765;-80
2022/03/25 07:55:52;;;;;;;19.32;15.15;;;25.60;41.50;;;;;;943328;151;27310;-80
2022/03/25 07:58:21;;;;;;;16.80;14.98;;;26.00;41.00;;;;;;943553;149;27396;-80
2022/03/25 08:00:45;;;;;;;16.23;14.73;;;26.30;40.60;;;;;;941704;151;27419;-80
2022/03/25 08:03:12;;;;;;;17.25;15.55;;;26.60;40.00;;;;;;942650;151;27311;-80
2022/03/25 08:05:38;;;;;;;17.10;15.53;;;26.90;39.60;;;;;;945013;150;27345;-80
2022/03/25 08:08:05;;;;;;;17.15;15.43;;;27.20;39.20;;;;;;945687;151;27303;-80
2022/03/25 08:10:31;;;;;;;17.98;16.07;;;27.50;38.80;;;;;;946421;151;27379;-80
2022/03/25 08:12:58;;;;;;;16.62;15.03;;;27.70;38.20;;;;;;945450;151;27293;-80
2022/03/25 08:15:24;;;;;;;16.80;15.20;;;27.90;37.80;;;;;;943914;150;27322;-80
2022/03/25 08:17:55;;;;;;;17.30;15.60;;;28.10;37.40;;;;;;943148;151;27337;-80
2022/03/25 08:20:21;;;;;;;18.30;16.50;;;28.30;37.10;;;;;;943154;150;27298;-80
2022/03/25 08:22:47;;;;;;;17.95;16.15;;;28.50;36.70;;;;;;937826;151;27392;-80
2022/03/25 08:28:00;;;;;;;17.23;15.53;;;28.80;36.30;;;;;;943870;151;27399;-80
2022/03/25 08:30:25;;;;;;;18.42;16.37;;;29.00;36.10;;;;;;942783;151;27365;-80
2022/03/25 08:32:52;;;;;;;16.85;15.30;;;29.20;35.70;;;;;;943254;151;27365;-80
2022/03/25 08:35:18;;;;;;;17.65;15.95;;;29.40;35.60;;;;;;943479;150;27383;-80
2022/03/25 08:37:45;;;;;;;17.65;15.95;;;29.60;35.20;;;;;;943800;151;27388;-80
2022/03/25 08:40:11;;;;;;;17.62;15.93;;;29.90;35.00;;;;;;943291;151;27270;-80
2022/03/25 08:42:38;;;;;;;17.35;15.70;;;30.00;34.80;;;;;;943147;151;27415;-80
2022/03/25 08:45:05;;;;;;;17.57;15.95;;;30.20;34.50;;;;;;943490;151;27337;-80
2022/03/25 08:47:31;;;;;;;17.30;15.58;;;30.40;34.20;;;;;;942704;150;27306;-81
2022/03/25 08:49:58;;;;;;;17.82;16.23;;;30.60;34.20;;;;;;943115;151;27478;-81
2022/03/25 08:52:24;;;;;;;17.82;16.10;;;30.80;34.00;;;;;;942653;149;27396;-81
2022/03/25 08:54:52;;;;;;;17.55;15.88;;;31.00;33.50;;;;;;943067;151;27434;-81
2022/03/25 08:57:18;;;;;;;18.82;17.02;;;31.20;33.30;;;;;;943248;151;27314;-81
2022/03/25 08:59:44;;;;;;;18.17;16.12;;;31.30;32.90;;;;;;943917;151;27446;-81
2022/03/25 09:02:11;;;;;;;17.73;16.05;;;31.40;32.70;;;;;;943194;150;27321;-78
2022/03/25 09:04:37;;;;;;;18.75;16.90;;;31.50;32.50;;;;;;943634;151;27357;-78
2022/03/25 09:07:04;;;;;;;18.25;16.48;;;31.70;32.40;;;;;;943662;151;27999;-78
2022/03/25 09:09:31;;;;;;;18.32;16.55;;;31.80;32.00;;;;;;943844;151;27695;-78
2022/03/25 09:11:57;;;;;;;18.32;16.48;;;31.90;31.60;;;;;;942914;151;27300;-78
2022/03/25 09:14:24;;;;;;;18.98;17.07;;;32.00;30.80;;;;;;942824;151;27266;-78
2022/03/25 09:16:50;;;;;;;19.62;17.48;;;32.10;31.30;;;;;;943782;151;27294;-78
2022/03/25 09:19:17;;;;;;;18.82;16.93;;;32.20;31.10;;;;;;943559;151;27302;-78
2022/03/25 09:21:43;;;;;;;21.05;17.60;;;32.20;30.70;;;;;;943609;151;27376;-78
2022/03/25 09:24:10;;;;;;;18.62;16.80;;;32.20;30.40;;;;;;943650;151;27306;-78
2022/03/25 09:26:37;;;;;;;19.65;17.27;;;32.20;30.20;;;;;;943705;149;27789;-78
2022/03/25 09:29:03;;;;;;;19.07;17.27;;;32.10;30.00;;;;;;935124;150;27446;-78
2022/03/25 09:31:30;;;;;;;18.73;16.93;;;32.00;30.00;;;;;;936435;150;27310;-78
2022/03/25 09:35:08;;;;;;;20.75;18.80;;;31.90;30.00;;;;;;935451;152;27453;-78
2022/03/25 09:36:23;;;;;;;20.68;18.67;;;31.80;30.00;;;;;;933609;152;27450;-78
2022/03/25 09:38:50;;;;;;;22.27;19.50;;;31.70;30.00;;;;;;936615;152;27243;-78
2022/03/25 09:41:16;;;;;;;20.12;18.07;;;31.70;29.90;;;;;;935748;152;27255;-78
2022/03/25 09:43:43;;;;;;;20.52;18.50;;;31.60;29.90;;;;;;935119;151;27413;-79
2022/03/25 09:46:10;;;;;;;19.82;17.92;;;31.50;29.80;;;;;;935174;151;27404;-79
2022/03/25 09:48:36;;;;;;;20.75;18.55;;;31.50;29.80;;;;;;935911;152;27334;-79
2022/03/25 09:51:03;;;;;;;21.40;19.30;;;31.50;29.80;;;;;;935965;152;27338;-79
2022/03/25 09:53:29;;;;;;;21.07;18.98;;;31.40;29.60;;;;;;936188;149;27494;-79
2022/03/25 09:55:56;;;;;;;20.35;18.40;;;31.30;29.30;;;;;;936470;152;27302;-79
2022/03/25 09:58:23;;;;;;;21.45;19.30;;;31.30;29.20;;;;;;935089;151;27332;-79
2022/03/25 10:00:52;;;;;;;21.27;19.20;;;31.10;29.10;;;;;;935907;151;27389;-79
2022/03/25 10:03:35;;;;;;;21.05;19.07;;;30.90;29.00;;;;;;935284;152;27368;-79
2022/03/25 10:06:01;;;;;;;21.40;19.12;;;30.60;28.90;;;;;;936729;152;27307;-78
2022/03/25 10:08:30;;;;;;;23.32;21.05;;;30.40;28.70;;;;;;935211;152;27789;-78
2022/03/25 10:10:56;;;;;;;23.27;20.88;;;30.10;28.30;;;;;;936288;152;27451;-79
2022/03/25 10:13:23;;;;;;;21.33;19.10;;;29.70;28.30;;;;;;935409;152;27418;-79
2022/03/25 10:15:49;;;;;;;22.13;19.92;;;29.30;28.40;;;;;;937063;152;27405;-79
2022/03/25 10:18:16;;;;;;;21.73;19.35;;;28.90;28.60;;;;;;936757;151;27279;-78
2022/03/25 10:20:42;;;;;;;22.77;18.50;;;28.60;28.70;;;;;;935839;152;27432;-79
2022/03/25 10:23:12;;;;;;;21.75;19.57;;;28.30;28.80;;;;;;936894;152;27448;-79
2022/03/25 10:25:45;;;;;;;20.97;18.87;;;28.00;28.90;;;;;;935371;152;27819;-78
2022/03/25 10:28:24;;;;;;;21.10;18.92;;;27.70;29.00;;;;;;936125;152;27413;-78
2022/03/25 10:30:51;;;;;;;21.00;18.87;;;27.50;29.00;;;;;;935880;152;27435;-79
2022/03/25 10:33:22;;;;;;;22.10;19.73;;;27.30;29.20;;;;;;935368;150;27331;-79
2022/03/25 10:35:55;;;;;;;21.17;18.98;;;27.00;29.10;;;;;;936951;152;27363;-78
2022/03/25 10:38:22;;;;;;;21.30;18.90;;;26.80;29.30;;;;;;927568;150;27477;-78
2022/03/25 10:40:57;;;;;;;21.33;19.17;;;26.60;29.90;;;;;;936179;151;27362;-79
2022/03/25 10:43:23;;;;;;;21.65;19.45;;;26.40;29.50;;;;;;936054;152;27851;-78
2022/03/25 10:45:50;;;;;;;24.85;19.82;;;26.10;29.40;;;;;;936498;152;27423;-79
2022/03/25 10:48:16;;;;;;;21.57;19.27;;;25.90;29.40;;;;;;936474;150;27282;-79
2022/03/25 10:51:01;;;;;;;23.12;20.68;;;25.70;29.50;;;;;;935755;151;27376;-79
2022/03/25 10:53:30;;;;;;;22.65;18.98;;;25.50;29.60;;;;;;935956;152;27383;-80
2022/03/25 10:55:57;;;;;;;23.42;19.92;;;25.20;29.70;;;;;;936953;152;27377;-80
2022/03/25 10:58:23;;;;;;;23.07;19.90;;;25.00;29.90;;;;;;936540;152;27395;-80
2022/03/25 11:00:50;;;;;;;23.05;20.50;;;24.80;30.00;;;;;;935994;150;27373;-80
2022/03/25 11:03:19;;;;;;;23.35;20.55;;;24.60;30.00;;;;;;935934;152;27302;-80
2022/03/25 11:05:46;;;;;;;24.18;21.10;;;24.50;30.10;;;;;;936552;152;27364;-80
2022/03/25 11:08:12;;;;;;;21.73;19.52;;;24.30;30.10;;;;;;936806;152;27488;-80
2022/03/25 11:10:39;;;;;;;25.15;19.77;;;24.20;30.40;;;;;;936190;150;27286;-80
2022/03/25 11:13:05;;;;;;;21.87;19.35;;;24.00;30.70;;;;;;934884;152;27403;-80
2022/03/25 11:15:32;;;;;;;22.50;19.82;;;23.90;31.00;;;;;;936208;150;27415;-80
2022/03/25 11:17:58;;;;;;;23.35;19.92;;;23.80;31.00;;;;;;936569;150;27700;-80
2022/03/25 11:20:25;;;;;;;22.30;19.95;;;23.70;31.10;;;;;;935159;150;27450;-80
2022/03/25 11:22:52;;;;;;;23.32;20.30;;;23.60;31.20;;;;;;935372;150;27411;-80
2022/03/25 11:25:18;;;;;;;21.65;18.75;;;23.50;31.30;;;;;;935835;152;27301;-80
2022/03/25 11:27:53;;;;;;;23.10;19.37;;;23.40;31.50;;;;;;934902;150;27415;-80
2022/03/25 11:30:20;;;;;;;24.40;19.62;;;23.40;31.50;;;;;;936289;151;28077;-80
2022/03/25 11:32:49;;;;;;;23.18;20.72;;;23.40;31.60;;;;;;936201;152;27454;-80
2022/03/25 11:35:16;;;;;;;22.17;19.02;;;23.30;31.70;;;;;;935611;152;27342;-80
2022/03/25 11:37:42;;;;;;;21.65;19.35;;;23.30;31.80;;;;;;936692;152;27299;-80
2022/03/25 11:40:15;;;;;;;22.82;19.45;;;23.30;32.00;;;;;;935519;150;27328;-80
2022/03/25 11:42:41;;;;;;;21.82;19.45;;;23.30;32.00;;;;;;937291;151;27266;-80
2022/03/25 11:45:32;;;;;;;24.50;21.97;;;23.30;32.00;;;;;;935999;152;27334;-80
2022/03/25 11:48:04;;;;;;;20.75;18.55;;;23.30;31.90;;;;;;935764;152;27309;-80
2022/03/25 11:50:34;;;;;;;20.05;17.95;;;23.20;31.90;;;;;;935530;152;27376;-80
2022/03/25 11:53:00;;;;;;;22.13;19.37;;;23.20;32.20;;;;;;934691;152;27338;-80
2022/03/25 11:55:26;;;;;;;21.20;19.00;;;23.10;32.10;;;;;;930723;152;27398;-80
2022/03/25 11:57:53;;;;;;;21.62;18.98;;;23.10;32.10;;;;;;934550;152;27270;-80
2022/03/25 12:00:25;;;;;;;22.62;19.80;;;23.10;32.10;;;;;;934330;151;27352;-80
2022/03/25 12:03:00;;;;;;;20.80;18.00;;;23.10;31.80;;;;;;936922;152;27377;-80
2022/03/25 12:05:28;;;;;;;22.37;17.90;;;23.10;31.80;;;;;;935924;152;27320;-80
2022/03/25 12:08:21;;;;;;;19.60;17.52;;;23.10;31.70;;;;;;935016;151;27274;-80
2022/03/25 12:10:49;;;;;;;21.80;18.37;;;23.10;31.40;;;;;;935536;150;27317;-80
2022/03/25 12:13:15;;;;;;;18.42;15.78;;;23.10;31.30;;;;;;935716;152;27390;-80
2022/03/25 12:15:41;;;;;;;17.15;15.35;;;23.00;31.00;;;;;;936369;151;27341;-80
2022/03/25 12:18:39;;;;;;;19.52;17.40;;;23.00;30.80;;;;;;937116;152;28463;-80
2022/03/25 12:21:05;;;;;;;19.17;17.05;;;23.00;30.40;;;;;;936510;152;28103;-80
2022/03/25 12:23:32;;;;;;;18.05;15.48;;;22.90;30.50;;;;;;936741;151;27214;-80
2022/03/25 12:25:58;;;;;;;16.73;14.95;;;22.90;30.60;;;;;;936289;150;27442;-80
2022/03/25 12:28:25;;;;;;;17.62;15.65;;;22.80;30.50;;;;;;937416;151;27632;-80
2022/03/25 12:30:51;;;;;;;17.60;15.75;;;22.80;30.00;;;;;;941860;150;27441;-80
2022/03/25 12:33:18;;;;;;;17.60;14.87;;;22.70;30.10;;;;;;943804;150;27360;-80
2022/03/25 12:35:45;;;;;;;17.70;15.90;;;22.70;30.00;;;;;;943664;151;27305;-79
2022/03/25 12:38:23;;;;;;;19.15;15.13;;;22.60;30.00;;;;;;943248;151;27406;-80